createdAt,value
2023-01-12T00:02:13.292Z,62.40
2023-01-12T00:04:44.579Z,62.61
2023-01-12T00:07:24.944Z,62.64
2023-01-12T00:09:54.128Z,62.55
2023-01-12T00:12:23.377Z,62.59
2023-01-12T00:14:52.803Z,62.65
2023-01-12T00:17:22.252Z,62.50
2023-01-12T00:19:53.978Z,62.95
2023-01-12T00:22:23.126Z,63.04
2023-01-12T00:24:52.228Z,62.58
2023-01-12T00:27:31.813Z,62.82
2023-01-12T00:30:01.002Z,63.24
2023-01-12T00:32:30.342Z,63.15
2023-01-12T00:35:01.449Z,63.55
2023-01-12T00:37:32.613Z,63.24
2023-01-12T00:40:03.099Z,63.07
2023-01-12T00:42:46.676Z,63.07
2023-01-12T00:45:24.429Z,63.27
2023-01-12T00:47:54.175Z,63.25
2023-01-12T00:50:25.685Z,63.34
2023-01-12T00:52:55.028Z,63.31
2023-01-12T00:55:24.217Z,63.39
2023-01-12T00:57:53.544Z,63.45
2023-01-12T01:00:23.373Z,63.16
2023-01-12T01:02:52.633Z,62.97
2023-01-12T01:05:28.730Z,63.05
2023-01-12T01:07:57.966Z,63.12
2023-01-12T01:10:27.055Z,63.32
2023-01-12T01:12:56.323Z,63.28
2023-01-12T01:15:25.385Z,63.64
2023-01-12T01:17:54.617Z,63.35
2023-01-12T01:20:23.720Z,63.25
2023-01-12T01:22:55.220Z,63.41
2023-01-12T01:25:24.510Z,63.90
2023-01-12T01:27:53.614Z,63.74
2023-01-12T01:30:23.008Z,63.54
2023-01-12T01:32:52.518Z,63.39
2023-01-12T01:35:21.710Z,63.31
2023-01-12T01:37:50.854Z,63.61
2023-01-12T01:40:22.286Z,63.64
2023-01-12T01:42:51.468Z,63.56
2023-01-12T01:45:20.862Z,63.38
2023-01-12T01:47:53.318Z,63.64
2023-01-12T01:50:28.324Z,63.37
2023-01-12T01:53:02.176Z,63.43
2023-01-12T01:55:39.263Z,63.29
2023-01-12T01:58:12.004Z,63.50
2023-01-12T02:00:43.174Z,63.61
2023-01-12T02:03:15.218Z,63.71
2023-01-12T02:05:48.378Z,63.87
2023-01-12T02:08:28.435Z,63.90
2023-01-12T02:11:00.683Z,63.86
2023-01-12T02:16:32.234Z,63.76
2023-01-12T02:19:23.296Z,63.71
2023-01-12T02:22:27.811Z,63.64
2023-01-12T02:25:19.400Z,63.59
2023-01-12T02:28:21.633Z,63.64
2023-01-12T02:31:05.257Z,63.69
2023-01-12T02:33:44.734Z,64.21
2023-01-12T02:36:21.325Z,63.83
2023-01-12T02:38:58.011Z,63.99
2023-01-12T02:41:47.423Z,63.82
2023-01-12T02:44:25.330Z,63.87
2023-01-12T02:46:55.777Z,64.03
2023-01-12T02:49:32.239Z,64.13
2023-01-12T02:52:15.997Z,63.94
2023-01-12T02:54:49.905Z,63.72
2023-01-12T02:57:21.857Z,64.59
2023-01-12T02:59:52.363Z,64.36
2023-01-12T03:05:08.083Z,64.12
2023-01-12T03:07:46.590Z,64.34
2023-01-12T03:10:33.204Z,64.74
2023-01-12T03:13:12.240Z,64.73
2023-01-12T03:15:46.393Z,64.68
2023-01-12T03:18:18.473Z,64.16
2023-01-12T03:20:54.917Z,64.76
2023-01-12T03:23:36.099Z,64.65
2023-01-12T03:26:07.543Z,64.71
2023-01-12T03:28:40.061Z,64.38
2023-01-12T03:31:11.701Z,64.75
2023-01-12T03:33:42.507Z,64.41
2023-01-12T03:36:21.607Z,64.63
2023-01-12T03:41:52.534Z,64.80
2023-01-12T03:44:28.386Z,64.68
2023-01-12T03:47:08.221Z,64.49
2023-01-12T03:49:43.129Z,64.94
2023-01-12T03:52:14.926Z,64.74
2023-01-12T03:54:48.271Z,64.10
2023-01-12T03:57:19.586Z,64.86
2023-01-12T03:59:49.227Z,64.22
2023-01-12T04:02:18.348Z,64.68
2023-01-12T04:04:47.616Z,64.70
2023-01-12T04:07:18.817Z,64.72
2023-01-12T04:09:48.002Z,64.43
2023-01-12T04:12:18.398Z,64.28
2023-01-12T04:14:48.309Z,64.43
2023-01-12T04:17:18.723Z,64.24
2023-01-12T04:19:48.401Z,64.52
2023-01-12T04:25:20.412Z,64.24
2023-01-12T04:27:53.835Z,64.34
2023-01-12T04:33:11.024Z,65.28
2023-01-12T04:35:40.231Z,64.91
2023-01-12T04:38:11.641Z,65.13
2023-01-12T04:40:40.907Z,65.10
2023-01-12T04:43:15.372Z,64.95
2023-01-12T04:45:47.374Z,65.05
2023-01-12T04:48:19.014Z,65.11
2023-01-12T04:50:50.136Z,64.96
2023-01-12T04:53:24.087Z,64.72
2023-01-12T04:55:53.342Z,65.09
2023-01-12T04:58:22.484Z,64.86
2023-01-12T05:00:56.724Z,64.95
2023-01-12T05:03:30.808Z,64.78
2023-01-12T05:06:00.109Z,64.52
2023-01-12T05:08:44.132Z,64.61
2023-01-12T05:11:13.375Z,64.46
2023-01-12T05:13:42.521Z,64.73
2023-01-12T05:16:18.383Z,65.31
2023-01-12T05:18:47.936Z,64.81
2023-01-12T05:24:01.078Z,65.09
2023-01-12T05:26:30.100Z,65.30
2023-01-12T05:28:59.117Z,65.14
2023-01-12T05:31:28.362Z,64.75
2023-01-12T05:36:32.889Z,64.99
2023-01-12T05:39:03.821Z,64.66
2023-01-12T05:41:32.977Z,64.64
2023-01-12T05:44:00.101Z,64.33
2023-01-12T05:46:32.817Z,64.91
2023-01-12T05:49:02.130Z,64.74
2023-01-12T05:51:33.796Z,64.91
2023-01-12T05:54:05.331Z,64.95
2023-01-12T05:56:34.675Z,64.79
2023-01-12T05:59:05.134Z,64.89
2023-01-12T06:01:34.780Z,65.12
2023-01-12T06:04:09.105Z,65.10
2023-01-12T06:09:15.631Z,65.41
2023-01-12T06:11:57.877Z,65.48
2023-01-12T06:14:27.493Z,65.23
2023-01-12T06:16:56.844Z,65.57
2023-01-12T06:19:26.069Z,65.92
2023-01-12T06:21:58.958Z,65.87
2023-01-12T06:24:30.426Z,66.27
2023-01-12T06:26:59.777Z,66.61
2023-01-12T06:29:28.789Z,66.62
2023-01-12T06:32:03.064Z,66.77
2023-01-12T06:34:34.960Z,67.13
2023-01-12T06:37:04.803Z,67.32
2023-01-12T06:39:36.291Z,67.18
2023-01-12T06:42:25.665Z,66.87
2023-01-12T06:44:54.821Z,67.02
2023-01-12T06:47:23.985Z,67.06
2023-01-12T06:49:53.758Z,67.29
2023-01-12T06:52:24.844Z,67.22
2023-01-12T06:54:56.224Z,67.61
2023-01-12T06:57:25.637Z,67.22
2023-01-12T06:59:56.028Z,67.49
2023-01-12T07:02:25.632Z,67.26
2023-01-12T07:04:54.800Z,67.42
2023-01-12T07:07:25.254Z,67.48
2023-01-12T07:09:56.428Z,67.65
2023-01-12T07:12:25.726Z,67.27
2023-01-12T07:14:55.750Z,67.62
2023-01-12T07:17:24.891Z,67.57
2023-01-12T07:19:53.968Z,67.33
2023-01-12T07:22:23.370Z,67.85
2023-01-12T07:24:52.491Z,67.92
2023-01-12T07:27:23.975Z,68.12
2023-01-12T07:29:53.833Z,68.04
2023-01-12T07:32:31.701Z,68.24
2023-01-12T07:35:00.956Z,68.50
2023-01-12T07:37:30.145Z,68.31
2023-01-12T07:42:37.729Z,68.87
2023-01-12T07:45:08.359Z,68.98
2023-01-12T07:47:37.523Z,69.16
2023-01-12T07:50:07.681Z,69.62
2023-01-12T07:52:37.432Z,69.52
2023-01-12T07:55:07.348Z,69.37
2023-01-12T07:57:38.397Z,69.55
2023-01-12T08:00:14.717Z,69.46
2023-01-12T08:02:54.995Z,69.20
2023-01-12T08:05:25.047Z,69.56
2023-01-12T08:07:59.109Z,69.81
2023-01-12T08:10:28.368Z,69.54
2023-01-12T08:12:59.693Z,69.26
2023-01-12T08:15:33.550Z,69.10
2023-01-12T08:18:10.473Z,69.60
2023-01-12T08:23:19.788Z,69.56
2023-01-12T08:25:58.768Z,69.69
2023-01-12T08:28:35.734Z,69.82
2023-01-12T08:31:05.528Z,70.40
2023-01-12T08:33:37.198Z,69.55
2023-01-12T08:36:07.271Z,69.67
2023-01-12T08:38:37.471Z,69.77
2023-01-12T08:41:19.991Z,69.46
2023-01-12T08:44:04.170Z,69.01
2023-01-12T08:46:34.909Z,69.04
2023-01-12T08:49:04.513Z,69.22
2023-01-12T08:51:33.543Z,69.75
2023-01-12T08:54:03.810Z,69.39
2023-01-12T08:56:32.995Z,69.63
2023-01-12T08:59:14.189Z,69.29
2023-01-12T09:01:44.379Z,69.35
2023-01-12T09:04:13.919Z,69.30
2023-01-12T09:06:50.129Z,68.94
2023-01-12T09:09:22.013Z,69.11
2023-01-12T09:11:51.385Z,69.16
2023-01-12T09:14:22.404Z,69.19
2023-01-12T09:16:51.646Z,69.02
2023-01-12T09:19:20.823Z,69.11
2023-01-12T09:21:50.114Z,68.80
2023-01-12T09:24:19.361Z,68.68
2023-01-12T09:26:48.625Z,68.42
2023-01-12T09:29:17.927Z,68.75
2023-01-12T09:31:49.449Z,68.63
2023-01-12T09:34:18.641Z,69.11
2023-01-12T09:36:50.123Z,69.09
2023-01-12T09:39:27.401Z,69.56
2023-01-12T09:42:11.074Z,69.14
2023-01-12T09:45:00.128Z,69.39
2023-01-12T09:47:41.224Z,69.08
2023-01-12T09:50:13.909Z,68.79
2023-01-12T09:52:46.582Z,69.15
2023-01-12T09:55:23.680Z,68.93
2023-01-12T09:58:22.541Z,69.04
2023-01-12T10:00:53.411Z,68.88
2023-01-12T10:03:36.759Z,69.01
2023-01-12T10:06:13.516Z,69.39
2023-01-12T10:08:56.339Z,69.09
2023-01-12T10:11:31.132Z,69.33
2023-01-12T10:14:20.032Z,69.55
2023-01-12T10:17:09.530Z,69.68
2023-01-12T10:19:50.794Z,69.29
2023-01-12T10:22:38.384Z,69.41
2023-01-12T10:28:01.317Z,69.29
2023-01-12T10:30:33.299Z,69.57
2023-01-12T10:33:11.622Z,69.28
2023-01-12T10:36:02.379Z,69.18
2023-01-12T10:38:34.573Z,69.43
2023-01-12T10:41:19.150Z,69.38
2023-01-12T10:44:07.093Z,69.08
2023-01-12T10:46:41.720Z,68.92
2023-01-12T10:49:24.276Z,69.04
2023-01-12T10:51:59.670Z,68.76
2023-01-12T10:54:32.916Z,69.47
2023-01-12T10:57:07.346Z,69.48
2023-01-12T11:02:19.995Z,69.73
2023-01-12T11:04:55.008Z,69.81
2023-01-12T11:07:28.659Z,69.46
2023-01-12T11:10:21.175Z,69.48
2023-01-12T11:12:56.895Z,69.83
2023-01-12T11:15:26.788Z,69.57
2023-01-12T11:18:07.164Z,69.78
2023-01-12T11:20:39.632Z,70.13
2023-01-12T11:23:18.982Z,69.71
2023-01-12T11:25:51.588Z,70.09
2023-01-12T11:28:25.815Z,70.19
2023-01-12T11:30:59.258Z,70.53
2023-01-12T11:33:45.677Z,70.99
2023-01-12T11:36:20.023Z,70.84
2023-01-12T11:38:58.549Z,70.53
2023-01-12T11:41:35.411Z,70.45
2023-01-12T11:44:19.156Z,70.98
2023-01-12T11:46:53.828Z,70.90
2023-01-12T11:49:34.842Z,71.16
2023-01-12T11:52:12.909Z,70.93
2023-01-12T11:54:44.924Z,71.07
2023-01-12T11:57:37.735Z,70.94
2023-01-12T12:00:25.768Z,71.63
2023-01-12T12:03:08.347Z,71.30
2023-01-12T12:05:49.065Z,71.25
2023-01-12T12:08:33.817Z,71.59
2023-01-12T12:11:12.995Z,71.55
2023-01-12T12:13:47.318Z,71.54
2023-01-12T12:16:27.825Z,72.05
2023-01-12T12:19:19.416Z,71.87
2023-01-12T12:22:04.082Z,71.61
2023-01-12T12:24:56.325Z,71.91
2023-01-12T12:27:40.150Z,72.71
2023-01-12T12:30:43.671Z,72.57
2023-01-12T12:33:27.075Z,72.53
2023-01-12T12:36:16.668Z,72.71
2023-01-12T12:39:15.173Z,72.80
2023-01-12T12:42:07.756Z,72.63
2023-01-12T12:45:05.940Z,73.00
2023-01-12T12:54:19.554Z,71.86
2023-01-12T12:56:51.305Z,72.53
2023-01-12T12:59:59.218Z,73.53
2023-01-12T13:02:41.042Z,73.28
2023-01-12T13:05:45.323Z,74.61
2023-01-12T13:08:21.699Z,73.47
2023-01-12T13:10:58.346Z,73.79
2023-01-12T13:13:29.151Z,74.68
2023-01-12T13:19:36.328Z,74.77
2023-01-12T13:22:30.415Z,75.50
2023-01-12T13:25:01.014Z,74.69
2023-01-12T13:27:52.062Z,74.88
2023-01-12T13:30:40.560Z,75.77
2023-01-12T13:33:28.878Z,75.05
2023-01-12T13:36:10.136Z,75.63
2023-01-12T13:39:00.634Z,75.50
2023-01-12T13:41:46.418Z,75.71
2023-01-12T13:44:29.370Z,75.11
2023-01-12T13:47:12.279Z,75.92
2023-01-12T13:49:47.956Z,75.65
2023-01-12T13:52:30.625Z,75.30
2023-01-12T13:55:27.621Z,76.67
2023-01-12T13:58:02.664Z,76.39
2023-01-12T14:00:34.646Z,76.18
2023-01-12T14:03:06.344Z,76.55
2023-01-12T14:05:48.556Z,76.35
2023-01-12T14:09:04.454Z,76.65
2023-01-12T14:12:05.986Z,77.11
2023-01-12T14:15:06.076Z,77.75
2023-01-12T14:17:58.132Z,77.08
2023-01-12T14:20:36.824Z,76.95
2023-01-12T14:23:16.736Z,78.40
2023-01-12T14:25:47.100Z,77.38
2023-01-12T14:28:25.395Z,77.63
2023-01-12T14:30:57.223Z,77.11
2023-01-12T14:36:18.543Z,77.45
2023-01-12T14:38:48.399Z,77.67
2023-01-12T14:41:35.183Z,77.76
2023-01-12T14:44:21.058Z,77.41
2023-01-12T14:47:01.315Z,77.34
2023-01-12T14:49:32.551Z,77.56
2023-01-12T14:52:03.468Z,77.45
2023-01-12T14:54:35.504Z,77.52
2023-01-12T14:57:21.028Z,78.11
2023-01-12T14:59:53.735Z,77.76
2023-01-12T15:02:42.270Z,78.22
2023-01-12T15:05:27.139Z,78.26
2023-01-12T15:07:59.756Z,77.78
2023-01-12T15:10:32.767Z,77.74
2023-01-12T15:13:27.434Z,78.30
2023-01-12T15:16:12.156Z,77.68
2023-01-12T15:18:54.362Z,78.30
2023-01-12T15:21:37.067Z,78.38
2023-01-12T15:24:32.133Z,78.59
2023-01-12T15:27:06.524Z,78.30
2023-01-12T15:29:36.349Z,78.83
2023-01-12T15:32:14.475Z,78.61
2023-01-12T15:34:49.154Z,78.51
2023-01-12T15:37:19.865Z,78.84
2023-01-12T15:39:54.698Z,78.80
2023-01-12T15:42:25.982Z,78.80
2023-01-12T15:44:55.838Z,78.73
2023-01-12T15:47:26.987Z,78.37
2023-01-12T15:49:56.448Z,79.09
2023-01-12T15:52:27.792Z,78.63
2023-01-12T15:54:57.740Z,78.65
2023-01-12T15:57:26.949Z,78.43
2023-01-12T15:59:56.138Z,77.84
2023-01-12T16:02:43.907Z,77.88
2023-01-12T16:05:23.598Z,77.98
2023-01-12T16:07:52.946Z,77.74
2023-01-12T16:10:23.243Z,77.82
2023-01-12T16:12:52.406Z,77.70
2023-01-12T16:15:22.902Z,77.76
2023-01-12T16:17:54.120Z,77.44
2023-01-12T16:20:28.378Z,77.61
2023-01-12T16:22:57.476Z,77.19
2023-01-12T16:25:26.901Z,77.01
2023-01-12T16:28:00.169Z,77.14
2023-01-12T16:30:29.465Z,76.76
2023-01-12T16:33:01.698Z,77.04
2023-01-12T16:35:30.936Z,76.42
2023-01-12T16:38:00.006Z,76.78
2023-01-12T16:40:29.686Z,76.58
2023-01-12T16:42:59.003Z,76.62
2023-01-12T16:45:28.569Z,76.44
2023-01-12T16:48:02.827Z,76.21
2023-01-12T16:50:31.998Z,76.25
2023-01-12T16:53:01.126Z,76.51
2023-01-12T16:55:30.682Z,76.68
2023-01-12T16:57:59.773Z,76.54
2023-01-12T17:00:32.607Z,76.40
2023-01-12T17:03:09.329Z,76.69
2023-01-12T17:05:41.350Z,76.18
2023-01-12T17:08:10.924Z,76.47
2023-01-12T17:10:40.098Z,75.99
2023-01-12T17:13:09.595Z,76.55
2023-01-12T17:15:38.850Z,76.19
2023-01-12T17:18:10.899Z,76.33
2023-01-12T17:20:40.382Z,76.08
2023-01-12T17:23:09.546Z,76.10
2023-01-12T17:25:39.057Z,76.05
2023-01-12T17:28:14.375Z,76.40
2023-01-12T17:30:44.101Z,76.10
2023-01-12T17:33:21.748Z,75.97
2023-01-12T17:35:52.414Z,76.17
2023-01-12T17:38:22.447Z,76.33
2023-01-12T17:40:51.503Z,76.33
2023-01-12T17:43:18.936Z,76.12
2023-01-12T17:45:53.164Z,76.11
2023-01-12T17:48:24.925Z,76.06
2023-01-12T17:50:54.258Z,76.19
2023-01-12T17:53:24.081Z,76.30
2023-01-12T17:55:53.597Z,75.98
2023-01-12T17:58:22.763Z,76.23
2023-01-12T18:00:58.732Z,76.16
2023-01-12T18:03:31.651Z,76.32
2023-01-12T18:06:09.052Z,75.98
2023-01-12T18:08:41.526Z,76.21
2023-01-12T18:11:10.951Z,76.30
2023-01-12T18:13:41.490Z,75.92
2023-01-12T18:16:12.173Z,76.07
2023-01-12T18:18:44.460Z,76.26
2023-01-12T18:21:21.763Z,76.36
2023-01-12T18:23:51.969Z,76.64
2023-01-12T18:26:24.791Z,76.25
2023-01-12T18:28:54.318Z,76.47
2023-01-12T18:31:24.937Z,76.63
2023-01-12T18:33:58.993Z,76.27
2023-01-12T18:36:28.306Z,76.17
2023-01-12T18:38:57.435Z,76.28
2023-01-12T18:44:14.552Z,76.71
2023-01-12T18:46:58.107Z,76.27
2023-01-12T18:49:30.499Z,76.74
2023-01-12T18:52:13.763Z,76.45
2023-01-12T18:54:46.924Z,76.10
2023-01-12T18:57:18.679Z,76.56
2023-01-12T18:59:56.678Z,76.34
2023-01-12T19:02:26.749Z,76.21
2023-01-12T19:05:12.447Z,76.35
2023-01-12T19:07:51.590Z,76.78
2023-01-12T19:10:21.087Z,76.53
2023-01-12T19:12:50.153Z,76.82
2023-01-12T19:15:37.669Z,77.14
2023-01-12T19:18:06.931Z,77.02
2023-01-12T19:20:39.820Z,76.70
2023-01-12T19:23:37.792Z,76.96
2023-01-12T19:26:25.113Z,76.71
2023-01-12T19:28:54.249Z,76.46
2023-01-12T19:31:23.328Z,76.83
2023-01-12T19:33:52.614Z,76.70
2023-01-12T19:36:23.723Z,77.19
2023-01-12T19:38:53.589Z,76.63
2023-01-12T19:41:35.558Z,76.93
2023-01-12T19:44:05.370Z,76.99
2023-01-12T19:46:34.961Z,77.46
2023-01-12T19:49:04.193Z,76.97
2023-01-12T19:51:35.297Z,77.31
2023-01-12T19:54:04.529Z,77.20
2023-01-12T19:56:33.561Z,77.36
2023-01-12T19:59:03.064Z,77.19
2023-01-12T20:01:32.770Z,77.36
2023-01-12T20:04:02.092Z,77.01
2023-01-12T20:06:39.417Z,77.12
2023-01-12T20:09:18.538Z,77.67
2023-01-12T20:14:27.442Z,77.48
2023-01-12T20:16:56.696Z,77.95
2023-01-12T20:19:26.059Z,77.57
2023-01-12T20:22:00.993Z,77.80
2023-01-12T20:24:30.818Z,77.71
2023-01-12T20:27:00.162Z,77.61
2023-01-12T20:29:34.643Z,77.61
2023-01-12T20:32:05.613Z,77.60
2023-01-12T20:34:36.425Z,78.20
2023-01-12T20:37:07.526Z,77.92
2023-01-12T20:39:36.623Z,77.60
2023-01-12T20:42:05.891Z,77.68
2023-01-12T20:44:35.160Z,77.97
2023-01-12T20:47:10.602Z,77.85
2023-01-12T20:49:39.880Z,77.78
2023-01-12T20:52:11.026Z,77.94
2023-01-12T20:54:45.341Z,78.07
2023-01-12T20:57:14.444Z,78.11
2023-01-12T20:59:50.338Z,78.09
2023-01-12T21:02:27.103Z,78.30
2023-01-12T21:04:56.289Z,78.51
2023-01-12T21:07:27.398Z,78.40
2023-01-12T21:09:56.649Z,78.02
2023-01-12T21:12:27.515Z,78.41
2023-01-12T21:15:02.286Z,78.06
2023-01-12T21:17:35.500Z,78.06
2023-01-12T21:22:42.754Z,78.34
2023-01-12T21:25:12.435Z,78.62
2023-01-12T21:27:42.227Z,78.08
2023-01-12T21:30:12.897Z,78.45
2023-01-12T21:32:43.133Z,78.08
2023-01-12T21:35:14.343Z,78.39
2023-01-12T21:37:50.951Z,78.40
2023-01-12T21:40:20.428Z,78.54
2023-01-12T21:43:02.466Z,79.04
2023-01-12T21:45:31.743Z,78.61
2023-01-12T21:48:00.831Z,78.79
2023-01-12T21:50:42.791Z,79.36
2023-01-12T21:53:22.330Z,78.98
2023-01-12T21:58:38.026Z,79.41
2023-01-12T22:01:12.042Z,79.75
2023-01-12T22:03:42.097Z,78.83
2023-01-12T22:06:16.725Z,79.52
2023-01-12T22:08:47.826Z,79.50
2023-01-12T22:11:18.037Z,79.51
2023-01-12T22:13:48.151Z,79.55
2023-01-12T22:16:18.084Z,79.32
2023-01-12T22:18:49.150Z,79.32
2023-01-12T22:21:19.925Z,79.17
2023-01-12T22:23:51.367Z,79.76
2023-01-12T22:26:21.129Z,79.83
2023-01-12T22:28:50.679Z,79.65
2023-01-12T22:31:21.712Z,80.04
2023-01-12T22:33:53.646Z,79.96
2023-01-12T22:36:22.558Z,79.90
2023-01-12T22:38:53.665Z,79.40
2023-01-12T22:41:24.507Z,79.25
2023-01-12T22:43:53.849Z,79.11
2023-01-12T22:46:25.165Z,79.76
2023-01-12T22:48:55.663Z,79.54
2023-01-12T22:51:26.883Z,79.60
2023-01-12T22:53:58.897Z,80.15
2023-01-12T22:56:28.237Z,80.12
2023-01-12T22:58:58.136Z,80.19
2023-01-12T23:01:28.149Z,80.10
2023-01-12T23:03:58.744Z,79.94
2023-01-12T23:06:33.910Z,80.14
2023-01-12T23:09:05.500Z,79.85
2023-01-12T23:11:41.427Z,80.54
2023-01-12T23:14:10.546Z,80.50
2023-01-12T23:16:44.727Z,80.49
2023-01-12T23:19:19.815Z,80.13
2023-01-12T23:21:48.925Z,80.38
2023-01-12T23:24:25.287Z,80.63
2023-01-12T23:26:59.487Z,80.58
2023-01-12T23:29:29.903Z,80.97
2023-01-12T23:32:04.214Z,80.91
2023-01-12T23:34:33.621Z,80.89
2023-01-12T23:37:02.926Z,81.06
2023-01-12T23:39:34.215Z,81.23
2023-01-12T23:42:03.538Z,81.21
2023-01-12T23:44:37.982Z,81.40
2023-01-12T23:47:07.365Z,81.72
2023-01-12T23:49:36.549Z,81.69
2023-01-12T23:52:06.085Z,81.47
2023-01-12T23:54:38.031Z,81.98
2023-01-12T23:57:07.407Z,81.41
2023-01-12T23:59:36.632Z,81.98
